Time;durP1;ratioP1;P1;durP2;ratioP2;P2;SDS_P1;SDS_P2;PMS_P1;PMS_P2;Temp;Humidity;BMP_temperature;BMP_pressure;BME280_temperature;BME280_humidity;BME280_pressure;Samples;Min_cycle;Max_cycle;Signal;HPM_P1;HPM_P2
2022/09/09 00:01:15;;;;;;;2.55;1.92;;;;;;;;;;5138983;27;20023;-44
2022/09/09 00:03:45;;;;;;;2.15;1.35;;;;;;;;;;5137725;27;20493;-43
2022/09/09 00:06:13;;;;;;;2.00;1.00;;;;;;;;;;5137042;27;20031;-42
2022/09/09 00:08:57;;;;;;;6.38;1.08;;;;;;;;;;5138827;27;20458;-44
2022/09/09 00:11:26;;;;;;;1.73;0.95;;;;;;;;;;5135262;27;20015;-45
2022/09/09 00:13:56;;;;;;;3.17;1.95;;;;;;;;;;5136796;27;20007;-42
2022/09/09 00:16:24;;;;;;;4.25;1.33;;;;;;;;;;5137314;27;20007;-46
2022/09/09 00:19:02;;;;;;;6.18;2.08;;;;;;;;;;5142382;27;20108;-47
2022/09/09 00:21:32;;;;;;;4.03;1.88;;;;;;;;;;5134478;27;20115;-48
2022/09/09 00:23:58;;;;;;;2.67;1.67;;;;;;;;;;5118985;27;20405;-46
2022/09/09 00:26:57;;;;;;;3.13;2.25;;;;;;;;;;5136594;27;20030;-47
2022/09/09 00:29:31;;;;;;;2.10;1.05;;;;;;;;;;5084299;27;20045;-44
2022/09/09 00:32:12;;;;;;;2.55;1.48;;;;;;;;;;5132364;27;20034;-44
2022/09/09 00:34:38;;;;;;;3.53;1.88;;;;;;;;;;5134777;27;20401;-45
2022/09/09 00:37:04;;;;;;;4.70;2.45;;;;;;;;;;5136490;27;20015;-43
2022/09/09 00:39:32;;;;;;;17.42;2.10;;;;;;;;;;5134799;27;20027;-42
2022/09/09 00:42:04;;;;;;;18.63;2.15;;;;;;;;;;5128763;27;20012;-46
2022/09/09 00:44:35;;;;;;;7.28;1.70;;;;;;;;;;5132671;27;20093;-43
2022/09/09 00:47:15;;;;;;;2.25;1.40;;;;;;;;;;5136411;27;20041;-44
2022/09/09 00:49:48;;;;;;;1.70;0.98;;;;;;;;;;5136165;27;20047;-45
2022/09/09 00:52:22;;;;;;;1.70;1.33;;;;;;;;;;5135949;27;20129;-46
2022/09/09 00:55:06;;;;;;;2.15;1.95;;;;;;;;;;5132899;27;20052;-43
2022/09/09 00:57:32;;;;;;;3.38;1.27;;;;;;;;;;5133327;27;20034;-45
2022/09/09 00:59:58;;;;;;;2.38;1.67;;;;;;;;;;5134428;27;20030;-45
2022/09/09 01:02:23;;;;;;;2.45;1.48;;;;;;;;;;5131852;27;20116;-42
2022/09/09 01:04:48;;;;;;;2.72;1.33;;;;;;;;;;5134764;27;20015;-43
2022/09/09 01:07:18;;;;;;;3.65;1.45;;;;;;;;;;5132118;27;20412;-42
2022/09/09 01:09:57;;;;;;;1.85;0.85;;;;;;;;;;5134923;27;20027;-43
2022/09/09 01:12:29;;;;;;;1.67;1.17;;;;;;;;;;5133946;27;20014;-45
2022/09/09 01:15:08;;;;;;;4.00;1.95;;;;;;;;;;5136777;27;20015;-43
2022/09/09 01:17:48;;;;;;;4.32;1.27;;;;;;;;;;5134106;27;20015;-44
2022/09/09 01:20:17;;;;;;;2.40;1.50;;;;;;;;;;5131761;27;20018;-44
2022/09/09 01:23:11;;;;;;;4.13;2.40;;;;;;;;;;5126611;27;20034;-47
2022/09/09 01:25:36;;;;;;;3.78;1.77;;;;;;;;;;5127346;27;20067;-42
2022/09/09 01:28:04;;;;;;;5.15;2.00;;;;;;;;;;5135169;27;20019;-47
2022/09/09 01:30:30;;;;;;;4.63;1.98;;;;;;;;;;5133990;27;20024;-43
2022/09/09 01:32:58;;;;;;;4.10;1.90;;;;;;;;;;5134752;27;20417;-46
2022/09/09 01:35:56;;;;;;;1.35;0.88;;;;;;;;;;5128558;27;20380;-45
2022/09/09 01:38:22;;;;;;;2.20;1.40;;;;;;;;;;5091892;27;20051;-46
2022/09/09 01:40:47;;;;;;;14.73;1.55;;;;;;;;;;5136062;27;20023;-46
2022/09/09 01:43:13;;;;;;;3.05;1.25;;;;;;;;;;5134589;27;20025;-46
2022/09/09 01:45:40;;;;;;;2.92;1.00;;;;;;;;;;5128656;27;20028;-45
2022/09/09 01:48:06;;;;;;;5.15;1.77;;;;;;;;;;5128377;27;20046;-42
2022/09/09 01:50:31;;;;;;;2.80;1.35;;;;;;;;;;5132574;27;20406;-47
2022/09/09 01:52:58;;;;;;;1.67;1.33;;;;;;;;;;5136039;27;20525;-44
2022/09/09 01:55:38;;;;;;;0.85;0.60;;;;;;;;;;5132837;27;20245;-48
2022/09/09 01:58:04;;;;;;;;;;;;;;;;;;5131879;27;20018;-44
2022/09/09 02:00:31;;;;;;;1.90;1.08;;;;;;;;;;5133557;27;19904;-43
2022/09/09 02:02:56;;;;;;;2.33;1.23;;;;;;;;;;5135542;27;20766;-47
2022/09/09 02:05:39;;;;;;;1.30;0.88;;;;;;;;;;5129060;27;20027;-47
2022/09/09 02:08:09;;;;;;;1.63;1.08;;;;;;;;;;5130081;27;20087;-43
2022/09/09 02:10:42;;;;;;;0.90;0.60;;;;;;;;;;5135213;27;20019;-42
2022/09/09 02:13:12;;;;;;;1.23;0.80;;;;;;;;;;5136483;27;20115;-43
2022/09/09 02:15:57;;;;;;;0.87;0.53;;;;;;;;;;5134342;27;20023;-43
2022/09/09 02:18:28;;;;;;;8.07;0.90;;;;;;;;;;5136893;27;20243;-46
2022/09/09 02:20:53;;;;;;;1.15;0.90;;;;;;;;;;5139880;27;20039;-44
2022/09/09 02:23:19;;;;;;;5.38;1.60;;;;;;;;;;5137328;27;20029;-46
2022/09/09 02:25:46;;;;;;;2.97;1.55;;;;;;;;;;5136746;27;20658;-43
2022/09/09 02:28:12;;;;;;;3.92;1.17;;;;;;;;;;5136917;27;20055;-44
2022/09/09 02:30:38;;;;;;;3.28;1.15;;;;;;;;;;5137295;27;20084;-46
2022/09/09 02:33:07;;;;;;;0.80;0.52;;;;;;;;;;5134002;27;20015;-45
2022/09/09 02:35:32;;;;;;;5.03;0.63;;;;;;;;;;5134443;27;20030;-43
2022/09/09 02:37:59;;;;;;;1.90;0.60;;;;;;;;;;5136282;27;20023;-42
2022/09/09 02:40:25;;;;;;;5.00;0.52;;;;;;;;;;5139244;27;20102;-42
2022/09/09 02:42:50;;;;;;;1.80;0.95;;;;;;;;;;5138871;27;20105;-43
2022/09/09 02:45:17;;;;;;;3.25;1.70;;;;;;;;;;5137685;27;20915;-46
2022/09/09 02:48:02;;;;;;;4.25;1.42;;;;;;;;;;5135402;27;20027;-42
2022/09/09 02:50:34;;;;;;;5.68;1.05;;;;;;;;;;5136428;27;20031;-44
2022/09/09 02:52:59;;;;;;;1.25;1.10;;;;;;;;;;5134614;27;20043;-43
2022/09/09 02:55:24;;;;;;;3.03;1.75;;;;;;;;;;5132671;27;20087;-43
2022/09/09 02:57:51;;;;;;;4.20;1.13;;;;;;;;;;5137823;27;20037;-45
2022/09/09 03:00:21;;;;;;;2.70;1.33;;;;;;;;;;5133227;27;20019;-45
2022/09/09 03:02:47;;;;;;;;;;;;;;;;;;5140061;27;20130;-45
2022/09/09 03:05:12;;;;;;;4.10;1.35;;;;;;;;;;5140984;27;20018;-44
2022/09/09 03:07:39;;;;;;;3.75;1.95;;;;;;;;;;5139561;27;20050;-45
2022/09/09 03:10:05;;;;;;;3.85;1.33;;;;;;;;;;5136155;27;20023;-44
2022/09/09 03:12:30;;;;;;;1.65;0.98;;;;;;;;;;5134278;27;20023;-44
2022/09/09 03:14:55;;;;;;;1.20;1.00;;;;;;;;;;5138435;27;20455;-44
2022/09/09 03:17:21;;;;;;;1.35;0.77;;;;;;;;;;5134758;27;20023;-45
2022/09/09 03:19:49;;;;;;;2.30;1.38;;;;;;;;;;5130331;27;20109;-44
2022/09/09 03:22:14;;;;;;;2.95;1.77;;;;;;;;;;5133974;27;20027;-46
2022/09/09 03:24:40;;;;;;;1.95;0.80;;;;;;;;;;5130602;27;20029;-43
2022/09/09 03:27:06;;;;;;;1.52;1.23;;;;;;;;;;5134468;27;20023;-43
2022/09/09 03:29:31;;;;;;;3.30;1.58;;;;;;;;;;5134532;27;20064;-45
2022/09/09 03:31:56;;;;;;;2.58;1.58;;;;;;;;;;5140320;27;20026;-43
2022/09/09 03:34:21;;;;;;;2.33;1.55;;;;;;;;;;5135221;27;20014;-43
2022/09/09 03:36:48;;;;;;;2.85;1.60;;;;;;;;;;5141382;27;20026;-43
2022/09/09 03:39:14;;;;;;;3.50;0.85;;;;;;;;;;5128141;27;20100;-43
2022/09/09 03:41:39;;;;;;;1.08;0.73;;;;;;;;;;5139383;27;20474;-43
2022/09/09 03:44:04;;;;;;;1.48;1.05;;;;;;;;;;5137070;27;20080;-45
2022/09/09 03:46:31;;;;;;;2.72;1.02;;;;;;;;;;5136860;27;20105;-42
2022/09/09 03:48:57;;;;;;;3.25;0.88;;;;;;;;;;5128459;27;20058;-45
2022/09/09 03:51:22;;;;;;;4.38;0.98;;;;;;;;;;5134936;27;20384;-46
2022/09/09 03:53:47;;;;;;;10.13;1.50;;;;;;;;;;5135905;27;20026;-43
2022/09/09 03:56:13;;;;;;;1.30;0.77;;;;;;;;;;5135079;27;20054;-46
2022/09/09 03:58:39;;;;;;;2.03;1.00;;;;;;;;;;5138402;27;20404;-45
2022/09/09 04:01:14;;;;;;;3.28;1.38;;;;;;;;;;5134599;27;20029;-43
2022/09/09 04:03:40;;;;;;;6.45;1.77;;;;;;;;;;5136501;27;20130;-46
2022/09/09 04:06:09;;;;;;;4.88;1.77;;;;;;;;;;5133654;27;20534;-42
2022/09/09 04:08:35;;;;;;;2.35;1.38;;;;;;;;;;5140080;27;20046;-45
2022/09/09 04:11:02;;;;;;;1.50;0.75;;;;;;;;;;5131491;27;20028;-43
2022/09/09 04:13:27;;;;;;;1.58;1.38;;;;;;;;;;5132077;27;20535;-43
2022/09/09 04:15:56;;;;;;;1.75;1.50;;;;;;;;;;5135611;27;20027;-45
2022/09/09 04:18:22;;;;;;;4.00;1.80;;;;;;;;;;5139646;27;20057;-48
2022/09/09 04:20:48;;;;;;;3.67;2.08;;;;;;;;;;5138181;27;20014;-43
2022/09/09 04:23:13;;;;;;;3.55;2.22;;;;;;;;;;5136777;27;20643;-46
2022/09/09 04:25:43;;;;;;;2.33;1.92;;;;;;;;;;5136168;27;20023;-47
2022/09/09 04:28:08;;;;;;;1.93;1.50;;;;;;;;;;5136855;27;20023;-48
2022/09/09 04:30:34;;;;;;;2.83;1.55;;;;;;;;;;5132509;27;20475;-43
2022/09/09 04:33:00;;;;;;;2.08;1.38;;;;;;;;;;5134950;27;20019;-43
2022/09/09 04:35:26;;;;;;;3.50;1.25;;;;;;;;;;5135014;27;20023;-43
2022/09/09 04:37:52;;;;;;;1.17;0.82;;;;;;;;;;5133796;27;20030;-44
2022/09/09 04:40:17;;;;;;;2.35;1.77;;;;;;;;;;5135691;27;20382;-43
2022/09/09 04:42:43;;;;;;;3.40;2.00;;;;;;;;;;5136088;27;20014;-47
2022/09/09 04:45:11;;;;;;;6.18;1.88;;;;;;;;;;5134564;27;20022;-47
2022/09/09 04:47:36;;;;;;;2.90;1.90;;;;;;;;;;5138143;27;20527;-43
2022/09/09 04:50:01;;;;;;;8.43;7.45;;;;;;;;;;5128927;27;20110;-45
2022/09/09 04:52:27;;;;;;;2.88;1.52;;;;;;;;;;5136217;27;20022;-44
2022/09/09 04:54:53;;;;;;;2.78;1.00;;;;;;;;;;5135642;27;20394;-43
2022/09/09 04:57:19;;;;;;;4.53;1.98;;;;;;;;;;5130740;27;20198;-43
2022/09/09 04:59:45;;;;;;;1.83;1.25;;;;;;;;;;5130072;27;20412;-42
2022/09/09 05:02:11;;;;;;;15.07;1.67;;;;;;;;;;5138106;27;20042;-42
2022/09/09 05:04:36;;;;;;;2.13;1.50;;;;;;;;;;5132673;27;20016;-42
2022/09/09 05:07:01;;;;;;;4.90;1.65;;;;;;;;;;5127163;27;20232;-46
2022/09/09 05:09:26;;;;;;;1.65;1.17;;;;;;;;;;5129690;27;20041;-47
2022/09/09 05:11:52;;;;;;;4.13;3.13;;;;;;;;;;5132014;27;20386;-42
2022/09/09 05:14:17;;;;;;;5.60;2.72;;;;;;;;;;5136156;27;20011;-43
2022/09/09 05:16:44;;;;;;;3.15;1.20;;;;;;;;;;5134442;27;20019;-44
2022/09/09 05:19:10;;;;;;;2.60;1.35;;;;;;;;;;5126210;27;20089;-44
2022/09/09 05:21:35;;;;;;;2.03;1.60;;;;;;;;;;5135331;27;20474;-43
2022/09/09 05:24:01;;;;;;;2.47;1.40;;;;;;;;;;5131906;27;20114;-47
2022/09/09 05:26:26;;;;;;;3.92;1.65;;;;;;;;;;5137264;27;20030;-43
2022/09/09 05:28:51;;;;;;;7.53;1.67;;;;;;;;;;5125506;27;20030;-44
2022/09/09 05:31:17;;;;;;;4.28;1.63;;;;;;;;;;5132331;27;20027;-43
2022/09/09 05:33:45;;;;;;;9.70;2.03;;;;;;;;;;5132550;27;20015;-44
2022/09/09 05:36:14;;;;;;;9.55;2.15;;;;;;;;;;5134837;27;20021;-44
2022/09/09 05:38:40;;;;;;;3.75;1.30;;;;;;;;;;5123283;27;20030;-43
2022/09/09 05:41:06;;;;;;;4.60;1.20;;;;;;;;;;5132817;27;20019;-45
2022/09/09 05:43:32;;;;;;;1.52;0.65;;;;;;;;;;5134157;27;20071;-44
2022/09/09 05:46:07;;;;;;;3.95;1.95;;;;;;;;;;5131540;27;20038;-45
2022/09/09 05:48:34;;;;;;;4.85;3.25;;;;;;;;;;5135832;27;20019;-45
2022/09/09 05:50:59;;;;;;;4.50;3.35;;;;;;;;;;5131424;27;20094;-47
2022/09/09 05:53:25;;;;;;;9.70;2.85;;;;;;;;;;5139896;27;20414;-48
2022/09/09 05:55:58;;;;;;;16.90;2.83;;;;;;;;;;5134252;27;20035;-45
2022/09/09 05:58:24;;;;;;;4.55;3.13;;;;;;;;;;5135929;27;20015;-43
2022/09/09 06:00:50;;;;;;;6.00;2.63;;;;;;;;;;5133039;27;20106;-44
2022/09/09 06:03:16;;;;;;;12.77;5.82;;;;;;;;;;5136011;27;20050;-50
2022/09/09 06:05:42;;;;;;;7.28;3.45;;;;;;;;;;5134954;27;20485;-46
2022/09/09 06:08:07;;;;;;;8.63;3.40;;;;;;;;;;5136254;27;20068;-45
2022/09/09 06:10:33;;;;;;;10.98;4.90;;;;;;;;;;5128213;27;20076;-45
2022/09/09 06:12:59;;;;;;;12.70;5.95;;;;;;;;;;5130036;27;20054;-43
2022/09/09 06:15:25;;;;;;;13.13;8.52;;;;;;;;;;5133068;27;20050;-43
2022/09/09 06:17:59;;;;;;;8.70;5.38;;;;;;;;;;5133464;27;20479;-48
2022/09/09 06:20:24;;;;;;;6.97;4.55;;;;;;;;;;5136212;27;20063;-44
2022/09/09 06:22:49;;;;;;;10.85;4.15;;;;;;;;;;5133997;27;20468;-44
2022/09/09 06:25:15;;;;;;;24.58;5.40;;;;;;;;;;5131618;27;20646;-43
2022/09/09 06:27:41;;;;;;;7.90;4.40;;;;;;;;;;5135520;27;20027;-44
2022/09/09 06:30:07;;;;;;;8.10;4.93;;;;;;;;;;5131281;27;20019;-44
2022/09/09 06:32:34;;;;;;;5.95;4.88;;;;;;;;;;5131216;27;20245;-44
2022/09/09 06:35:01;;;;;;;7.32;6.00;;;;;;;;;;5132020;27;20334;-43
2022/09/09 06:37:27;;;;;;;12.13;6.25;;;;;;;;;;5134695;27;20041;-44
2022/09/09 06:39:52;;;;;;;8.40;7.28;;;;;;;;;;5128639;27;20033;-44
2022/09/09 06:42:18;;;;;;;19.25;7.95;;;;;;;;;;5130713;27;20027;-45
2022/09/09 06:44:43;;;;;;;21.83;7.57;;;;;;;;;;5133526;27;20023;-45
2022/09/09 06:47:09;;;;;;;15.52;8.85;;;;;;;;;;5130772;27;20023;-44
2022/09/09 06:49:34;;;;;;;6.75;4.40;;;;;;;;;;5133532;27;20023;-48
2022/09/09 06:52:00;;;;;;;11.52;8.88;;;;;;;;;;5130741;27;20027;-44
2022/09/09 06:54:25;;;;;;;13.07;5.20;;;;;;;;;;5128487;27;20016;-43
2022/09/09 06:56:50;;;;;;;15.10;6.90;;;;;;;;;;5127419;27;20109;-43
2022/09/09 06:59:16;;;;;;;8.70;4.35;;;;;;;;;;5133919;27;20651;-43
2022/09/09 07:01:43;;;;;;;7.70;5.82;;;;;;;;;;5128916;27;20497;-42
2022/09/09 07:04:10;;;;;;;5.35;3.15;;;;;;;;;;5131386;27;20504;-43
2022/09/09 07:06:46;;;;;;;4.05;2.85;;;;;;;;;;5134659;27;20113;-45
2022/09/09 07:09:12;;;;;;;8.25;2.97;;;;;;;;;;5136875;27;20019;-43
2022/09/09 07:11:48;;;;;;;11.63;2.75;;;;;;;;;;5134666;27;20007;-42
2022/09/09 07:14:14;;;;;;;8.82;3.63;;;;;;;;;;5131337;27;20123;-43
2022/09/09 07:16:40;;;;;;;8.30;2.47;;;;;;;;;;5136110;27;20516;-42
2022/09/09 07:19:06;;;;;;;14.75;3.15;;;;;;;;;;5135348;27;20018;-43
2022/09/09 07:21:31;;;;;;;7.20;3.13;;;;;;;;;;5138168;27;20029;-43
2022/09/09 07:23:57;;;;;;;3.42;2.63;;;;;;;;;;5134879;27;20095;-46
2022/09/09 07:26:24;;;;;;;9.70;3.72;;;;;;;;;;5131662;27;20524;-43
2022/09/09 07:28:49;;;;;;;2.85;2.08;;;;;;;;;;5129099;27;20359;-46
2022/09/09 07:31:17;;;;;;;12.48;1.98;;;;;;;;;;5139987;27;20586;-46
2022/09/09 07:33:43;;;;;;;2.90;2.17;;;;;;;;;;5137900;27;20019;-47
2022/09/09 07:36:15;;;;;;;6.90;1.55;;;;;;;;;;5135327;27;20081;-42
2022/09/09 07:38:40;;;;;;;2.38;1.10;;;;;;;;;;5131335;27;20816;-44
2022/09/09 07:41:08;;;;;;;3.03;1.98;;;;;;;;;;5135789;27;20023;-43
2022/09/09 07:43:33;;;;;;;2.58;1.60;;;;;;;;;;5136708;27;20110;-43
2022/09/09 07:46:01;;;;;;;3.17;1.25;;;;;;;;;;5137882;27;20110;-44
2022/09/09 07:48:26;;;;;;;4.10;2.00;;;;;;;;;;5131843;27;20027;-43
2022/09/09 07:50:51;;;;;;;7.22;1.52;;;;;;;;;;5131169;27;20120;-43
2022/09/09 07:53:17;;;;;;;3.30;1.40;;;;;;;;;;5134646;27;20471;-46
2022/09/09 07:55:43;;;;;;;2.25;1.63;;;;;;;;;;5136729;27;20138;-39
2022/09/09 07:58:08;;;;;;;1.55;1.20;;;;;;;;;;5137249;27;20145;-42
2022/09/09 08:00:33;;;;;;;2.95;1.05;;;;;;;;;;5130877;27;20050;-43
2022/09/09 08:03:00;;;;;;;8.20;2.50;;;;;;;;;;5132314;27;20482;-43
2022/09/09 08:05:26;;;;;;;1.70;1.08;;;;;;;;;;5136717;27;20019;-46
2022/09/09 08:07:51;;;;;;;16.35;3.10;;;;;;;;;;5131765;27;20026;-45
2022/09/09 08:10:17;;;;;;;3.13;1.67;;;;;;;;;;5133577;27;20035;-49
2022/09/09 08:12:43;;;;;;;6.82;3.33;;;;;;;;;;5132212;27;20031;-44
2022/09/09 08:15:08;;;;;;;4.85;1.65;;;;;;;;;;5134215;27;20557;-44
2022/09/09 08:17:33;;;;;;;7.82;1.67;;;;;;;;;;5136702;27;20019;-46
2022/09/09 08:20:03;;;;;;;3.72;1.92;;;;;;;;;;5133510;27;20022;-46
2022/09/09 08:22:29;;;;;;;4.40;1.95;;;;;;;;;;5135206;27;20031;-45
2022/09/09 08:24:54;;;;;;;6.07;1.95;;;;;;;;;;5132182;27;20027;-45
2022/09/09 08:27:19;;;;;;;13.68;1.48;;;;;;;;;;5135205;27;20393;-46
2022/09/09 08:29:45;;;;;;;2.60;1.83;;;;;;;;;;5134273;27;20027;-42
2022/09/09 08:32:10;;;;;;;4.63;1.92;;;;;;;;;;5133821;27;20042;-49
2022/09/09 08:34:35;;;;;;;2.95;1.85;;;;;;;;;;5136272;27;20034;-46
2022/09/09 08:37:00;;;;;;;7.10;2.97;;;;;;;;;;5131862;27;20079;-42
2022/09/09 08:39:26;;;;;;;1.35;0.95;;;;;;;;;;5130232;27;20059;-40
2022/09/09 08:42:00;;;;;;;8.90;1.85;;;;;;;;;;5135619;27;20029;-42
2022/09/09 08:44:38;;;;;;;3.45;2.33;;;;;;;;;;5135106;27;20539;-46
2022/09/09 08:47:22;;;;;;;4.03;1.63;;;;;;;;;;5134121;27;20027;-42
2022/09/09 08:50:06;;;;;;;5.30;1.77;;;;;;;;;;5135155;27;20021;-44
2022/09/09 08:52:50;;;;;;;3.40;0.95;;;;;;;;;;5134422;27;20018;-42
2022/09/09 08:55:21;;;;;;;13.50;1.85;;;;;;;;;;5132168;27;20047;-45
2022/09/09 08:57:48;;;;;;;6.32;2.28;;;;;;;;;;5137342;27;20026;-43
2022/09/09 09:00:14;;;;;;;2.22;1.52;;;;;;;;;;5128994;27;20023;-43
2022/09/09 09:02:39;;;;;;;5.63;2.03;;;;;;;;;;5132364;27;20026;-45
2022/09/09 09:05:39;;;;;;;2.10;1.23;;;;;;;;;;5136047;27;20423;-42
2022/09/09 09:08:06;;;;;;;;;;;;;;;;;;5029241;28;20259;-40
2022/09/09 09:10:38;;;;;;;8.18;1.70;;;;;;;;;;5109406;27;19999;-41
2022/09/09 09:13:07;;;;;;;3.40;1.52;;;;;;;;;;5136385;27;20075;-43
2022/09/09 09:15:39;;;;;;;2.00;1.10;;;;;;;;;;5130475;27;20458;-43
2022/09/09 09:18:04;;;;;;;3.65;1.73;;;;;;;;;;5132445;27;20460;-42
2022/09/09 09:20:53;;;;;;;1.45;1.05;;;;;;;;;;5129314;27;20122;-42
2022/09/09 09:23:23;;;;;;;1.45;1.10;;;;;;;;;;5121194;27;20502;-43
2022/09/09 09:25:51;;;;;;;1.98;0.77;;;;;;;;;;5136838;27;20743;-43
2022/09/09 09:28:17;;;;;;;2.20;1.17;;;;;;;;;;5133540;27;20018;-45
2022/09/09 09:30:46;;;;;;;29.27;3.95;;;;;;;;;;5133810;27;20015;-45
2022/09/09 09:33:15;;;;;;;5.30;1.55;;;;;;;;;;5129856;27;20641;-44
2022/09/09 09:35:40;;;;;;;3.80;1.98;;;;;;;;;;5134234;27;20019;-43
2022/09/09 09:38:25;;;;;;;2.97;1.38;;;;;;;;;;5128609;27;20070;-42
2022/09/09 09:40:58;;;;;;;4.00;1.40;;;;;;;;;;5131080;27;20095;-42
2022/09/09 09:43:30;;;;;;;4.90;1.17;;;;;;;;;;5128216;27;20019;-45
2022/09/09 09:45:57;;;;;;;3.22;0.82;;;;;;;;;;5130727;27;20023;-41
2022/09/09 09:48:23;;;;;;;9.30;1.10;;;;;;;;;;5129290;27;20024;-41
2022/09/09 09:50:53;;;;;;;14.45;5.63;;;;;;;;;;5132942;27;20030;-44
2022/09/09 09:53:24;;;;;;;4.57;2.28;;;;;;;;;;5132037;27;20114;-42
2022/09/09 09:55:53;;;;;;;6.13;1.40;;;;;;;;;;5128785;27;20042;-45
2022/09/09 09:58:19;;;;;;;8.20;1.13;;;;;;;;;;5132965;27;20023;-44
2022/09/09 10:00:49;;;;;;;1.00;0.73;;;;;;;;;;5134549;27;20589;-42
2022/09/09 10:03:23;;;;;;;2.40;1.27;;;;;;;;;;5135801;27;20031;-43
2022/09/09 10:05:48;;;;;;;3.38;1.77;;;;;;;;;;5135396;27;20042;-45
2022/09/09 10:08:16;;;;;;;5.85;1.88;;;;;;;;;;5119049;27;20018;-42
2022/09/09 10:11:01;;;;;;;0.50;0.40;;;;;;;;;;5135229;27;20490;-41
2022/09/09 10:13:39;;;;;;;7.50;1.35;;;;;;;;;;5128397;27;20027;-42
2022/09/09 10:16:14;;;;;;;3.70;0.88;;;;;;;;;;5132071;27;20023;-42
2022/09/09 10:18:47;;;;;;;5.03;1.15;;;;;;;;;;5130238;27;20023;-43
2022/09/09 10:21:12;;;;;;;3.90;1.85;;;;;;;;;;5133133;27;20011;-40
2022/09/09 10:23:43;;;;;;;2.07;1.67;;;;;;;;;;5132236;27;20262;-42
2022/09/09 10:26:12;;;;;;;6.55;1.10;;;;;;;;;;5132549;27;20392;-43
2022/09/09 10:28:37;;;;;;;8.40;1.25;;;;;;;;;;5130548;27;20079;-42
2022/09/09 10:31:11;;;;;;;3.43;1.03;;;;;;;;;;5132691;27;20018;-43
2022/09/09 10:33:55;;;;;;;2.67;1.48;;;;;;;;;;5141441;27;20278;-44
2022/09/09 10:36:21;;;;;;;9.68;1.38;;;;;;;;;;5137854;27;20016;-44
2022/09/09 10:39:07;;;;;;;5.50;1.45;;;;;;;;;;5134097;27;20524;-43
2022/09/09 10:41:38;;;;;;;2.45;1.25;;;;;;;;;;5084286;27;20046;-45
2022/09/09 10:44:04;;;;;;;2.67;1.08;;;;;;;;;;5137205;27;20106;-42
2022/09/09 10:46:45;;;;;;;2.15;1.25;;;;;;;;;;5136696;27;20034;-41
2022/09/09 10:49:10;;;;;;;;;;;;;;;;;;5131781;27;20023;-42
2022/09/09 10:51:42;;;;;;;6.65;0.85;;;;;;;;;;5136527;27;19903;-42
2022/09/09 10:54:34;;;;;;;6.28;2.95;;;;;;;;;;5135713;27;20019;-44
2022/09/09 10:57:05;;;;;;;4.18;1.95;;;;;;;;;;5128544;27;20585;-42
2022/09/09 10:59:36;;;;;;;3.38;0.73;;;;;;;;;;5132789;27;20014;-42
2022/09/09 11:02:19;;;;;;;2.38;1.02;;;;;;;;;;5136143;27;20061;-43
2022/09/09 11:04:47;;;;;;;1.50;1.23;;;;;;;;;;5135131;27;20015;-43
2022/09/09 11:07:18;;;;;;;4.80;1.10;;;;;;;;;;5134989;27;20059;-41
2022/09/09 11:09:43;;;;;;;;;;;;;;;;;;5132146;27;20019;-45
2022/09/09 11:12:12;;;;;;;8.15;2.92;;;;;;;;;;5137511;27;19964;-45
2022/09/09 11:14:58;;;;;;;2.95;1.20;;;;;;;;;;5132487;27;20044;-43
2022/09/09 11:17:26;;;;;;;4.10;1.55;;;;;;;;;;5137345;27;20106;-47
2022/09/09 11:19:52;;;;;;;13.52;1.90;;;;;;;;;;5132722;27;20034;-47
2022/09/09 11:22:20;;;;;;;5.28;1.88;;;;;;;;;;5133691;27;20123;-45
2022/09/09 11:24:52;;;;;;;2.50;1.10;;;;;;;;;;5129851;27;20053;-45
2022/09/09 11:27:30;;;;;;;2.67;1.45;;;;;;;;;;5137425;27;20058;-50
2022/09/09 11:29:59;;;;;;;3.53;1.50;;;;;;;;;;5138254;27;20023;-47
2022/09/09 11:33:04;;;;;;;1.13;0.63;;;;;;;;;;5139390;27;20505;-47
2022/09/09 11:35:30;;;;;;;5.28;1.25;;;;;;;;;;5033888;28;20017;-48
2022/09/09 11:38:01;;;;;;;3.15;1.33;;;;;;;;;;5032513;28;20021;-45
2022/09/09 11:40:28;;;;;;;3.38;1.65;;;;;;;;;;5086472;27;20033;-43
2022/09/09 11:43:04;;;;;;;3.90;1.42;;;;;;;;;;5137283;27;20046;-43
2022/09/09 11:45:30;;;;;;;6.75;1.48;;;;;;;;;;5133367;27;20431;-43
2022/09/09 11:47:59;;;;;;;2.42;0.80;;;;;;;;;;5135824;27;20019;-42
2022/09/09 11:50:24;;;;;;;2.58;1.23;;;;;;;;;;5139453;27;20019;-43
2022/09/09 11:52:50;;;;;;;3.78;1.13;;;;;;;;;;5137239;27;20094;-42
2022/09/09 11:55:26;;;;;;;2.33;0.95;;;;;;;;;;5133502;27;20168;-43
2022/09/09 11:58:01;;;;;;;2.65;1.45;;;;;;;;;;5137057;27;20022;-45
2022/09/09 12:00:45;;;;;;;7.70;1.83;;;;;;;;;;5135225;27;20027;-41
2022/09/09 12:03:29;;;;;;;1.58;0.85;;;;;;;;;;5138946;27;20058;-42
2022/09/09 12:05:55;;;;;;;1.40;0.75;;;;;;;;;;5134269;27;20023;-41
2022/09/09 12:08:26;;;;;;;2.95;0.57;;;;;;;;;;5135766;27;20037;-42
2022/09/09 12:10:56;;;;;;;2.10;1.10;;;;;;;;;;5137946;27;20022;-44
2022/09/09 12:13:23;;;;;;;1.42;0.95;;;;;;;;;;5135077;27;20022;-41
2022/09/09 12:15:53;;;;;;;5.35;1.13;;;;;;;;;;5138168;27;20015;-41
2022/09/09 12:18:18;;;;;;;;;;;;;;;;;;5133464;27;20138;-43
2022/09/09 12:20:54;;;;;;;6.38;2.05;;;;;;;;;;5132447;27;19989;-42
2022/09/09 12:23:26;;;;;;;3.47;1.17;;;;;;;;;;5133453;27;20029;-41
2022/09/09 12:26:16;;;;;;;2.75;1.10;;;;;;;;;;5135697;27;20027;-43
2022/09/09 12:28:41;;;;;;;1.50;1.27;;;;;;;;;;5138043;27;20025;-42
2022/09/09 12:31:20;;;;;;;2.20;0.80;;;;;;;;;;5134499;27;20027;-43
2022/09/09 12:33:47;;;;;;;1.38;1.08;;;;;;;;;;5135242;27;20113;-46
2022/09/09 12:36:19;;;;;;;2.75;1.27;;;;;;;;;;5135073;27;20108;-42
2022/09/09 12:38:44;;;;;;;4.00;0.98;;;;;;;;;;5133288;27;20022;-43
2022/09/09 12:41:19;;;;;;;4.30;1.58;;;;;;;;;;5133129;27;20023;-48
2022/09/09 12:43:45;;;;;;;6.43;1.75;;;;;;;;;;5126479;27;20027;-43
2022/09/09 12:46:17;;;;;;;2.03;1.02;;;;;;;;;;5132874;27;20026;-43
2022/09/09 12:48:42;;;;;;;10.10;2.15;;;;;;;;;;5133074;27;20027;-47
2022/09/09 12:51:18;;;;;;;3.33;1.52;;;;;;;;;;5135121;27;20015;-48
2022/09/09 12:53:45;;;;;;;1.48;1.10;;;;;;;;;;5134446;27;20473;-48
2022/09/09 12:56:18;;;;;;;7.00;3.33;;;;;;;;;;5138273;27;20051;-50
2022/09/09 12:58:46;;;;;;;9.35;5.53;;;;;;;;;;5128387;27;20011;-46
2022/09/09 13:01:20;;;;;;;20.65;18.90;;;;;;;;;;5134120;27;20021;-49
2022/09/09 13:03:45;;;;;;;23.33;15.45;;;;;;;;;;5131079;27;20024;-48
2022/09/09 13:06:12;;;;;;;22.15;20.17;;;;;;;;;;5126492;27;20110;-41
2022/09/09 13:08:37;;;;;;;29.55;26.52;;;;;;;;;;5132308;27;20021;-45
2022/09/09 13:11:07;;;;;;;16.23;14.57;;;;;;;;;;5131979;27;20505;-48
2022/09/09 13:13:36;;;;;;;14.52;12.43;;;;;;;;;;5134379;27;20538;-42
2022/09/09 13:16:02;;;;;;;18.58;13.63;;;;;;;;;;5134017;27;20122;-49
2022/09/09 13:18:33;;;;;;;10.90;9.77;;;;;;;;;;5133881;27;20046;-47
2022/09/09 13:20:59;;;;;;;17.67;15.95;;;;;;;;;;5131569;27;20150;-45
2022/09/09 13:23:29;;;;;;;14.70;9.18;;;;;;;;;;5137501;27;20026;-43
2022/09/09 13:25:55;;;;;;;12.98;10.48;;;;;;;;;;5136520;27;20022;-44
2022/09/09 13:28:22;;;;;;;5.65;5.13;;;;;;;;;;5132522;27;20072;-44
2022/09/09 13:31:00;;;;;;;10.55;5.47;;;;;;;;;;5132215;27;20026;-46
2022/09/09 13:33:33;;;;;;;9.07;7.85;;;;;;;;;;5128692;27;20015;-44
2022/09/09 13:36:00;;;;;;;6.07;4.47;;;;;;;;;;5136451;27;20067;-44
2022/09/09 13:38:27;;;;;;;7.07;5.07;;;;;;;;;;5131574;27;20019;-48
2022/09/09 13:41:03;;;;;;;3.97;3.08;;;;;;;;;;5132347;27;20049;-50
2022/09/09 13:43:29;;;;;;;7.03;4.13;;;;;;;;;;5134707;27;20025;-48
2022/09/09 13:45:59;;;;;;;4.25;2.40;;;;;;;;;;5134647;27;20022;-49
2022/09/09 13:48:25;;;;;;;6.00;4.18;;;;;;;;;;5127134;27;20025;-45
2022/09/09 13:50:55;;;;;;;11.23;5.07;;;;;;;;;;5132303;27;20114;-47
2022/09/09 13:53:20;;;;;;;4.45;3.85;;;;;;;;;;5132110;27;20536;-48
2022/09/09 13:55:45;;;;;;;6.72;6.10;;;;;;;;;;5133869;27;20039;-45
2022/09/09 13:58:15;;;;;;;10.52;5.13;;;;;;;;;;5137066;27;20096;-50
2022/09/09 14:00:40;;;;;;;9.67;5.43;;;;;;;;;;5132011;27;20023;-44
2022/09/09 14:03:07;;;;;;;6.55;2.78;;;;;;;;;;5132481;27;20027;-45
2022/09/09 14:05:33;;;;;;;5.78;4.25;;;;;;;;;;5128052;27;20074;-45
2022/09/09 14:08:00;;;;;;;10.40;4.53;;;;;;;;;;5134951;27;20026;-48
2022/09/09 14:10:25;;;;;;;7.80;3.65;;;;;;;;;;5124083;27;20106;-45
2022/09/09 14:12:50;;;;;;;2.75;1.63;;;;;;;;;;5130992;27;20098;-44
2022/09/09 14:15:16;;;;;;;10.52;3.10;;;;;;;;;;5132271;27;20118;-40
2022/09/09 14:17:41;;;;;;;10.80;3.90;;;;;;;;;;5132413;27;20370;-48
2022/09/09 14:20:09;;;;;;;3.80;3.45;;;;;;;;;;5136008;27;20417;-46
2022/09/09 14:22:34;;;;;;;4.70;2.47;;;;;;;;;;5132304;27;20498;-46
2022/09/09 14:24:59;;;;;;;3.42;1.70;;;;;;;;;;5131078;27;20058;-46
2022/09/09 14:27:26;;;;;;;2.58;2.17;;;;;;;;;;5129413;27;20015;-44
2022/09/09 14:29:52;;;;;;;9.52;3.05;;;;;;;;;;5130942;27;20030;-43
2022/09/09 14:32:17;;;;;;;4.60;3.65;;;;;;;;;;5127827;27;20098;-45
2022/09/09 14:34:42;;;;;;;3.60;2.95;;;;;;;;;;5126063;27;20008;-44
2022/09/09 14:37:07;;;;;;;3.63;1.65;;;;;;;;;;5128312;27;20064;-47
2022/09/09 14:39:33;;;;;;;3.70;2.72;;;;;;;;;;5129968;27;20096;-43
2022/09/09 14:41:58;;;;;;;2.85;1.77;;;;;;;;;;5127154;27;20019;-43
2022/09/09 14:44:23;;;;;;;4.90;2.22;;;;;;;;;;5127437;27;20063;-46
2022/09/09 14:46:53;;;;;;;4.60;3.58;;;;;;;;;;5130746;27;20571;-44
2022/09/09 14:49:18;;;;;;;2.58;1.75;;;;;;;;;;5128769;27;20022;-45
2022/09/09 14:51:43;;;;;;;4.50;3.42;;;;;;;;;;5129156;27;20480;-47
2022/09/09 14:54:08;;;;;;;3.28;2.08;;;;;;;;;;5133584;27;20134;-44